createdAt,value
2022-08-10T00:00:24.030Z,18.33
2022-08-10T00:03:12.306Z,18.37
2022-08-10T00:06:00.683Z,17.91
2022-08-10T00:08:50.413Z,17.87
2022-08-10T00:11:38.862Z,17.91
2022-08-10T00:14:27.179Z,17.98
2022-08-10T00:17:15.699Z,17.71
2022-08-10T00:20:08.510Z,17.82
2022-08-10T00:22:58.071Z,17.83
2022-08-10T00:25:47.909Z,17.79
2022-08-10T00:28:36.366Z,18.02
2022-08-10T00:31:24.758Z,18.31
2022-08-10T00:34:13.113Z,18.40
2022-08-10T00:37:02.082Z,18.57
2022-08-10T00:39:50.536Z,18.73
2022-08-10T00:42:40.374Z,18.76
2022-08-10T00:45:28.856Z,18.71
2022-08-10T00:48:17.217Z,18.72
2022-08-10T00:51:06.586Z,18.66
2022-08-10T00:53:55.038Z,18.69
2022-08-10T00:57:16.651Z,18.64
2022-08-10T00:59:58.710Z,18.61
2022-08-10T01:02:48.296Z,18.29
2022-08-10T01:05:51.223Z,18.02
2022-08-10T01:08:48.774Z,17.96
2022-08-10T01:12:38.895Z,17.82
2022-08-10T01:15:08.675Z,17.90
2022-08-10T01:18:02.887Z,17.92
2022-08-10T01:21:15.132Z,17.80
2022-08-10T01:24:16.817Z,18.37
2022-08-10T01:27:37.209Z,18.61
2022-08-10T01:30:31.467Z,18.60
2022-08-10T01:33:31.993Z,18.66
2022-08-10T01:36:40.831Z,18.37
2022-08-10T01:39:34.098Z,18.00
2022-08-10T01:42:24.730Z,18.19
2022-08-10T01:45:17.032Z,18.27
2022-08-10T01:48:27.936Z,18.18
2022-08-10T01:51:22.106Z,18.31
2022-08-10T01:54:13.521Z,18.31
2022-08-10T01:57:04.326Z,18.28
2022-08-10T02:00:02.195Z,18.21
2022-08-10T02:02:55.405Z,18.15
2022-08-10T02:05:48.530Z,18.21
2022-08-10T02:08:38.306Z,18.15
2022-08-10T02:11:28.960Z,18.12
2022-08-10T02:14:40.876Z,18.04
2022-08-10T02:17:57.089Z,18.05
2022-08-10T02:20:49.049Z,17.98
2022-08-10T02:23:40.685Z,17.94
2022-08-10T02:26:30.488Z,17.34
2022-08-10T02:29:19.861Z,17.19
2022-08-10T02:32:10.570Z,16.98
2022-08-10T02:35:00.385Z,16.76
2022-08-10T02:37:56.340Z,16.64
2022-08-10T02:42:18.259Z,16.92
2022-08-10T02:45:22.444Z,17.00
2022-08-10T02:47:23.712Z,16.56
2022-08-10T02:50:20.368Z,16.43
2022-08-10T02:53:56.275Z,16.38
2022-08-10T02:56:26.213Z,16.46
2022-08-10T02:59:21.810Z,16.17
2022-08-10T03:02:15.575Z,16.84
2022-08-10T03:05:08.031Z,16.94
2022-08-10T03:08:01.390Z,16.95
2022-08-10T03:10:52.770Z,16.56
2022-08-10T03:13:42.726Z,16.29
2022-08-10T03:16:34.404Z,16.55
2022-08-10T03:20:33.864Z,16.85
2022-08-10T03:22:35.703Z,16.83
2022-08-10T03:25:26.918Z,16.87
2022-08-10T03:28:20.412Z,16.67
2022-08-10T03:31:10.158Z,16.25
2022-08-10T03:34:01.681Z,15.89
2022-08-10T03:36:50.373Z,15.68
2022-08-10T03:39:38.997Z,16.03
2022-08-10T03:42:29.144Z,16.14
2022-08-10T03:45:19.515Z,15.87
2022-08-10T03:48:09.697Z,15.94
2022-08-10T03:50:59.741Z,16.02
2022-08-10T03:54:04.188Z,16.28
2022-08-10T03:56:55.908Z,16.64
2022-08-10T03:59:44.679Z,16.83
2022-08-10T04:02:45.457Z,16.71
2022-08-10T04:05:38.080Z,16.59
2022-08-10T04:08:27.587Z,16.69
2022-08-10T04:11:16.010Z,16.77
2022-08-10T04:14:05.007Z,16.98
2022-08-10T04:16:53.473Z,16.68
2022-08-10T04:19:47.104Z,16.47
2022-08-10T04:22:37.801Z,16.24
2022-08-10T04:25:27.258Z,16.49
2022-08-10T04:28:16.561Z,16.50
2022-08-10T04:31:07.533Z,16.70
2022-08-10T04:33:59.086Z,16.75
2022-08-10T04:37:04.327Z,16.82
2022-08-10T04:39:56.440Z,16.94
2022-08-10T04:42:45.448Z,17.12
2022-08-10T04:45:48.536Z,17.10
2022-08-10T04:48:59.751Z,17.24
2022-08-10T04:51:48.358Z,16.98
2022-08-10T04:54:38.153Z,17.26
2022-08-10T04:57:27.966Z,17.41
2022-08-10T05:00:19.062Z,17.63
2022-08-10T05:03:07.827Z,17.67
2022-08-10T05:05:56.273Z,17.95
2022-08-10T05:08:45.577Z,17.90
2022-08-10T05:11:35.781Z,18.12
2022-08-10T05:14:24.282Z,18.13
2022-08-10T05:17:12.969Z,17.98
2022-08-10T05:20:06.060Z,17.89
2022-08-10T05:22:55.558Z,17.91
2022-08-10T05:25:44.021Z,17.56
2022-08-10T05:28:35.238Z,17.77
2022-08-10T05:31:24.037Z,17.74
2022-08-10T05:34:20.618Z,18.13
2022-08-10T05:38:10.406Z,18.50
2022-08-10T05:40:20.179Z,18.48
2022-08-10T05:43:09.123Z,18.64
2022-08-10T05:46:17.477Z,18.72
2022-08-10T05:49:07.589Z,18.69
2022-08-10T05:51:56.011Z,18.98
2022-08-10T05:54:44.753Z,19.00
2022-08-10T05:57:36.333Z,19.62
2022-08-10T06:00:40.643Z,19.63
2022-08-10T06:03:37.386Z,19.73
2022-08-10T06:06:28.505Z,19.94
2022-08-10T06:09:18.133Z,20.26
2022-08-10T06:12:27.576Z,20.18
2022-08-10T06:15:21.740Z,20.53
2022-08-10T06:18:25.986Z,20.62
2022-08-10T06:21:17.174Z,20.91
2022-08-10T06:24:09.354Z,20.59
2022-08-10T06:26:57.925Z,20.82
2022-08-10T06:29:47.769Z,21.11
2022-08-10T06:32:36.703Z,21.39
2022-08-10T06:35:29.230Z,21.56
2022-08-10T06:38:20.287Z,21.59
2022-08-10T06:41:19.872Z,21.29
2022-08-10T06:44:12.465Z,21.82
2022-08-10T06:47:04.145Z,22.11
2022-08-10T06:49:59.525Z,22.27
2022-08-10T06:52:51.336Z,22.28
2022-08-10T06:55:55.057Z,22.35
2022-08-10T06:58:50.581Z,22.39
2022-08-10T07:01:41.258Z,22.68
2022-08-10T07:04:45.788Z,22.77
2022-08-10T07:07:39.959Z,22.97
2022-08-10T07:10:45.590Z,23.10
2022-08-10T07:14:15.567Z,23.35
2022-08-10T07:16:48.765Z,23.52
2022-08-10T07:19:50.081Z,23.36
2022-08-10T07:23:52.024Z,23.36
2022-08-10T07:25:58.890Z,23.43
2022-08-10T07:28:50.308Z,23.60
2022-08-10T07:31:55.528Z,23.60
2022-08-10T07:34:49.212Z,23.72
2022-08-10T07:37:41.131Z,22.82
2022-08-10T07:40:31.101Z,23.08
2022-08-10T07:43:23.023Z,23.66
2022-08-10T07:46:16.167Z,23.89
2022-08-10T07:49:19.560Z,24.10
2022-08-10T07:52:10.978Z,24.06
2022-08-10T07:55:01.418Z,24.17
2022-08-10T07:57:53.343Z,24.21
2022-08-10T08:00:42.882Z,23.93
2022-08-10T08:03:34.898Z,23.45
2022-08-10T08:06:24.210Z,23.50
2022-08-10T08:09:12.808Z,23.91
2022-08-10T08:12:03.637Z,23.49
2022-08-10T08:14:54.055Z,23.92
2022-08-10T08:17:44.103Z,23.89
2022-08-10T08:20:35.254Z,24.11
2022-08-10T08:24:10.319Z,23.22
2022-08-10T08:26:38.594Z,24.04
2022-08-10T08:29:27.814Z,24.20
2022-08-10T08:32:19.195Z,23.22
2022-08-10T08:35:10.495Z,24.02
2022-08-10T08:38:29.909Z,24.06
2022-08-10T08:41:27.252Z,24.31
2022-08-10T08:44:23.615Z,24.01
2022-08-10T08:48:03.925Z,23.19
2022-08-10T08:50:57.977Z,23.52
2022-08-10T08:54:04.169Z,22.98
2022-08-10T08:57:04.725Z,23.05
2022-08-10T09:00:01.930Z,23.67
2022-08-10T09:03:08.965Z,24.43
2022-08-10T09:06:08.991Z,24.60
2022-08-10T09:09:31.991Z,23.52
2022-08-10T09:12:33.977Z,24.00
2022-08-10T09:15:40.402Z,24.70
2022-08-10T09:18:40.260Z,25.26
2022-08-10T09:21:43.346Z,25.21
2022-08-10T09:24:55.318Z,25.48
2022-08-10T09:27:49.378Z,24.21
2022-08-10T09:31:03.578Z,24.76
2022-08-10T09:36:26.169Z,25.32
2022-08-10T09:37:39.998Z,25.27
2022-08-10T09:40:59.627Z,25.77
2022-08-10T09:44:02.613Z,25.80
2022-08-10T09:47:00.440Z,26.34
2022-08-10T09:50:04.943Z,26.07
2022-08-10T09:53:06.423Z,26.33
2022-08-10T09:56:19.383Z,26.38
2022-08-10T09:59:59.391Z,26.57
2022-08-10T10:02:36.276Z,24.94
2022-08-10T10:05:38.246Z,24.16
2022-08-10T10:08:31.832Z,24.81
2022-08-10T10:11:27.812Z,24.24
2022-08-10T10:14:35.647Z,25.32
2022-08-10T10:17:35.947Z,24.84
2022-08-10T10:20:29.661Z,25.19
2022-08-10T10:23:26.049Z,25.08
2022-08-10T10:26:21.379Z,25.18
2022-08-10T10:29:55.620Z,26.02
2022-08-10T10:32:37.378Z,26.29
2022-08-10T10:35:32.156Z,25.86
2022-08-10T10:38:24.287Z,25.82
2022-08-10T10:41:21.280Z,26.43
2022-08-10T10:44:38.964Z,25.00
2022-08-10T10:47:56.844Z,24.85
2022-08-10T10:50:59.864Z,25.30
2022-08-10T10:54:03.330Z,25.64
2022-08-10T10:56:58.214Z,26.75
2022-08-10T10:59:57.838Z,27.27
2022-08-10T11:03:00.948Z,27.46
2022-08-10T11:05:56.242Z,27.37
2022-08-10T11:08:52.199Z,25.84
2022-08-10T11:12:02.037Z,25.65
2022-08-10T11:14:59.822Z,25.36
2022-08-10T11:17:56.434Z,25.48
2022-08-10T11:20:52.872Z,25.26
2022-08-10T11:24:47.704Z,26.12
2022-08-10T11:27:03.595Z,26.80
2022-08-10T11:30:01.940Z,26.56
2022-08-10T11:33:04.941Z,26.39
2022-08-10T11:35:57.769Z,26.87
2022-08-10T11:39:13.484Z,26.86
2022-08-10T11:42:23.205Z,27.81
2022-08-10T11:45:23.278Z,28.32
2022-08-10T11:48:54.227Z,28.37
2022-08-10T11:51:35.721Z,28.30
2022-08-10T11:54:30.667Z,28.32
2022-08-10T11:57:21.115Z,28.26
2022-08-10T12:00:10.027Z,26.70
2022-08-10T12:03:04.900Z,26.68
2022-08-10T12:05:56.153Z,26.67
2022-08-10T12:10:10.474Z,27.42
2022-08-10T12:11:56.420Z,26.90
2022-08-10T12:14:51.661Z,27.82
2022-08-10T12:17:46.374Z,29.70
2022-08-10T12:20:38.691Z,29.43
2022-08-10T12:23:39.197Z,27.75
2022-08-10T12:26:33.741Z,27.95
2022-08-10T12:29:28.389Z,28.52
2022-08-10T12:32:25.905Z,28.11
2022-08-10T12:35:23.709Z,28.01
2022-08-10T12:38:22.274Z,29.54
2022-08-10T12:41:18.527Z,30.86
2022-08-10T12:44:41.040Z,32.10
2022-08-10T12:47:41.969Z,32.41
2022-08-10T12:50:40.598Z,32.89
2022-08-10T12:53:42.260Z,31.78
2022-08-10T12:56:36.842Z,32.30
2022-08-10T12:59:29.749Z,32.00
2022-08-10T13:02:22.776Z,30.84
2022-08-10T13:05:13.669Z,27.54
2022-08-10T13:08:26.571Z,28.91
2022-08-10T13:12:34.239Z,30.05
2022-08-10T13:14:33.591Z,30.77
2022-08-10T13:17:32.304Z,31.56
2022-08-10T13:20:29.602Z,32.09
2022-08-10T13:23:23.434Z,30.01
2022-08-10T13:26:15.728Z,27.71
2022-08-10T13:29:13.300Z,26.76
2022-08-10T13:32:09.823Z,26.54
2022-08-10T13:35:03.740Z,26.23
2022-08-10T13:37:55.761Z,26.79
2022-08-10T13:40:49.944Z,27.16
2022-08-10T13:43:39.234Z,27.66
2022-08-10T13:46:29.430Z,28.04
2022-08-10T13:49:19.264Z,29.84
2022-08-10T13:52:13.784Z,29.47
2022-08-10T13:55:03.271Z,29.72
2022-08-10T13:57:53.830Z,29.61
2022-08-10T14:00:47.447Z,29.99
2022-08-10T14:03:40.010Z,29.21
2022-08-10T14:06:30.089Z,28.52
2022-08-10T14:09:24.011Z,29.64
2022-08-10T14:12:13.969Z,29.65
2022-08-10T14:15:04.643Z,30.76
2022-08-10T14:17:57.356Z,28.91
2022-08-10T14:20:49.325Z,29.51
2022-08-10T14:23:41.806Z,29.38
2022-08-10T14:26:31.418Z,28.69
2022-08-10T14:29:23.298Z,28.46
2022-08-10T14:32:14.086Z,29.05
2022-08-10T14:36:18.537Z,28.29
2022-08-10T14:38:22.535Z,27.18
2022-08-10T14:42:01.748Z,27.37
2022-08-10T14:44:29.047Z,27.87
2022-08-10T14:47:53.359Z,27.10
2022-08-10T14:50:33.485Z,26.92
2022-08-10T14:53:27.321Z,26.89
2022-08-10T14:56:19.465Z,27.54
2022-08-10T14:59:09.851Z,27.54
2022-08-10T15:02:38.788Z,27.76
2022-08-10T15:05:10.897Z,28.31
2022-08-10T15:08:00.712Z,28.96
2022-08-10T15:10:57.686Z,28.21
2022-08-10T15:14:14.953Z,30.67
2022-08-10T15:16:58.593Z,30.86
2022-08-10T15:20:04.214Z,31.19
2022-08-10T15:23:02.163Z,30.13
2022-08-10T15:25:57.978Z,30.22
2022-08-10T15:29:21.950Z,29.35
2022-08-10T15:32:17.637Z,30.68
2022-08-10T15:35:25.965Z,30.48
2022-08-10T15:38:19.014Z,30.51
2022-08-10T15:41:12.266Z,29.22
2022-08-10T15:44:00.789Z,30.72
2022-08-10T15:46:51.521Z,30.49
2022-08-10T15:49:48.998Z,31.08
2022-08-10T15:53:01.935Z,29.67
2022-08-10T15:55:54.027Z,29.51
2022-08-10T15:58:49.049Z,31.64
2022-08-10T16:02:14.354Z,28.73
2022-08-10T16:04:53.385Z,28.76
2022-08-10T16:07:49.076Z,28.76
2022-08-10T16:10:45.868Z,30.13
2022-08-10T16:13:50.702Z,30.91
2022-08-10T16:16:55.700Z,31.18
2022-08-10T16:19:49.724Z,31.80
2022-08-10T16:22:38.201Z,31.18
2022-08-10T16:25:51.273Z,29.78
2022-08-10T16:28:40.125Z,30.63
2022-08-10T16:31:32.491Z,29.84
2022-08-10T16:34:24.811Z,28.52
2022-08-10T16:37:15.937Z,27.80
2022-08-10T16:40:07.293Z,27.51
2022-08-10T16:42:57.261Z,27.17
2022-08-10T16:45:48.905Z,27.81
2022-08-10T16:48:50.063Z,28.14
2022-08-10T16:51:42.347Z,28.71
2022-08-10T16:54:32.396Z,28.81
2022-08-10T16:57:27.376Z,28.71
2022-08-10T17:00:21.548Z,29.72
2022-08-10T17:04:04.838Z,29.50
2022-08-10T17:06:27.919Z,28.94
2022-08-10T17:09:19.824Z,28.74
2022-08-10T17:12:11.704Z,28.54
2022-08-10T17:15:10.285Z,28.90
2022-08-10T17:18:02.418Z,28.12
2022-08-10T17:20:52.436Z,28.99
2022-08-10T17:23:47.008Z,28.89
2022-08-10T17:26:38.979Z,27.96
2022-08-10T17:29:59.010Z,28.87
2022-08-10T17:32:45.191Z,26.97
2022-08-10T17:35:37.399Z,27.04
2022-08-10T17:38:30.225Z,26.48
2022-08-10T17:41:35.144Z,26.35
2022-08-10T17:44:25.931Z,26.45
2022-08-10T17:47:14.747Z,26.13
2022-08-10T17:50:03.942Z,26.29
2022-08-10T17:52:55.272Z,26.20
2022-08-10T17:55:47.166Z,26.47
2022-08-10T17:58:38.329Z,26.02
2022-08-10T18:01:40.586Z,25.51
2022-08-10T18:04:42.601Z,24.92
2022-08-10T18:07:35.739Z,25.39
2022-08-10T18:10:24.798Z,25.24
2022-08-10T18:13:17.506Z,25.32
2022-08-10T18:16:07.303Z,25.13
2022-08-10T18:19:00.980Z,24.82
2022-08-10T18:21:50.874Z,24.78
2022-08-10T18:24:40.573Z,24.48
2022-08-10T18:27:46.588Z,24.33
2022-08-10T18:30:48.251Z,23.95
2022-08-10T18:33:45.404Z,23.96
2022-08-10T18:36:41.370Z,23.99
2022-08-10T18:39:35.204Z,24.00
2022-08-10T18:42:32.478Z,23.89
2022-08-10T18:45:24.148Z,23.69
2022-08-10T18:48:17.912Z,22.87
2022-08-10T18:51:07.799Z,22.85
2022-08-10T18:54:05.604Z,22.57
2022-08-10T18:56:58.003Z,22.48
2022-08-10T19:00:08.848Z,22.30
2022-08-10T19:03:11.479Z,22.29
2022-08-10T19:06:34.036Z,22.23
2022-08-10T19:09:46.679Z,21.99
2022-08-10T19:12:53.113Z,22.09
2022-08-10T19:15:52.696Z,22.30
2022-08-10T19:18:53.239Z,22.46
2022-08-10T19:21:46.478Z,22.42
2022-08-10T19:25:02.581Z,22.68
2022-08-10T19:28:02.928Z,22.64
2022-08-10T19:30:55.400Z,22.48
2022-08-10T19:33:52.665Z,22.31
2022-08-10T19:37:10.109Z,22.54
2022-08-10T19:40:15.455Z,22.43
2022-08-10T19:43:09.537Z,22.02
2022-08-10T19:46:05.665Z,22.09
2022-08-10T19:48:59.848Z,22.16
2022-08-10T19:51:56.985Z,21.42
2022-08-10T19:54:55.719Z,21.88
2022-08-10T19:57:53.201Z,21.79
2022-08-10T20:00:50.917Z,21.76
2022-08-10T20:03:45.817Z,21.92
2022-08-10T20:06:43.609Z,21.58
2022-08-10T20:09:42.677Z,21.51
2022-08-10T20:12:38.369Z,21.20
2022-08-10T20:15:42.301Z,21.08
2022-08-10T20:18:37.503Z,21.34
2022-08-10T20:21:29.897Z,21.39
2022-08-10T20:24:27.789Z,21.32
2022-08-10T20:28:00.003Z,21.29
2022-08-10T20:30:35.890Z,21.14
2022-08-10T20:33:29.379Z,21.00
2022-08-10T20:36:26.422Z,20.76
2022-08-10T20:39:19.532Z,20.35
2022-08-10T20:42:12.971Z,20.58
2022-08-10T20:45:05.632Z,20.84
2022-08-10T20:48:00.783Z,20.70
2022-08-10T20:50:54.627Z,20.86
2022-08-10T20:53:48.011Z,20.69
2022-08-10T20:56:43.604Z,20.59
2022-08-10T21:00:04.233Z,20.62
2022-08-10T21:03:22.017Z,20.38
2022-08-10T21:06:54.588Z,20.56
2022-08-10T21:09:53.796Z,20.70
2022-08-10T21:13:05.621Z,20.89
2022-08-10T21:16:04.650Z,20.72
2022-08-10T21:19:15.671Z,20.79
2022-08-10T21:22:15.650Z,20.63
2022-08-10T21:25:07.638Z,20.44
2022-08-10T21:28:10.909Z,20.73
2022-08-10T21:31:21.784Z,20.38
2022-08-10T21:34:31.826Z,20.31
2022-08-10T21:37:40.067Z,20.40
2022-08-10T21:41:16.996Z,20.54
2022-08-10T21:44:25.593Z,20.34
2022-08-10T21:48:07.507Z,20.69
2022-08-10T21:51:27.125Z,20.49
2022-08-10T21:54:51.801Z,20.55
2022-08-10T21:58:07.734Z,20.66
2022-08-10T22:01:17.698Z,20.57
2022-08-10T22:04:24.577Z,20.30
2022-08-10T22:07:36.693Z,20.75
2022-08-10T22:10:46.807Z,20.69
2022-08-10T22:14:01.605Z,20.50
2022-08-10T22:18:03.462Z,20.39
2022-08-10T22:20:45.585Z,20.04
2022-08-10T22:24:16.668Z,19.97
2022-08-10T22:27:47.574Z,19.94
2022-08-10T22:34:59.561Z,20.13
2022-08-10T22:38:14.302Z,19.79
2022-08-10T22:41:32.158Z,19.88
2022-08-10T22:44:40.403Z,19.90
2022-08-10T22:47:49.408Z,19.69
2022-08-10T22:50:38.123Z,19.71
2022-08-10T22:53:51.761Z,19.48
2022-08-10T22:56:59.327Z,19.47
2022-08-10T22:59:49.499Z,19.58
2022-08-10T23:02:40.005Z,19.61
2022-08-10T23:05:33.808Z,19.86
2022-08-10T23:08:30.696Z,19.58
2022-08-10T23:11:23.527Z,19.49
2022-08-10T23:14:16.063Z,19.65
2022-08-10T23:18:00.631Z,19.76
2022-08-10T23:20:38.808Z,20.06
2022-08-10T23:23:31.232Z,20.08
2022-08-10T23:26:27.189Z,19.83
2022-08-10T23:29:17.360Z,19.58
2022-08-10T23:32:09.324Z,19.50
2022-08-10T23:36:31.003Z,19.53
2022-08-10T23:38:10.357Z,19.84
2022-08-10T23:41:03.797Z,19.94
2022-08-10T23:44:04.141Z,20.02
2022-08-10T23:46:55.092Z,19.82
2022-08-10T23:49:44.437Z,19.71
2022-08-10T23:52:35.106Z,19.29
2022-08-10T23:55:25.863Z,19.02
2022-08-10T23:58:30.040Z,18.78
